Archival Weather

Half Moon Bay

Half Moon Bay, California (KHAF)

Report from: Wednesday, December 6, 2023 1:15 AM PST
Current time: Saturday, February 24, 2024 8:18 AM PST

Current weather – Weather history – Daily summaries
Weather forecast

Present weatherMist
Temperature9.0°C (48.2°F)
Dew point9.0°C (48.2°F)
Winds Calm
Visibility6 mi. (9.7 km)
Clouds Ceiling: Broken clouds 200 ft. (61 m)
Overcast 1,900 ft. (579 m)
Altimeter30.07 in.Hg (1018 mB)
Relative humidity100 %
Density altitude-727 ft. (-222 m)
Remarks Fully automated report
Automated weather observing station with precipitation discriminator
Flight conditions Low Instrument Meteorological Conditions
Raw dataKHAF 060915Z AUTO 00000KT 6SM BR BKN002 OVC019 09/09 A3007 RMK AO2
An error has occurred. This application may no longer respond until reloaded. Reload 🗙